Thomson Majesty — 9HA2188 — position and weather

sailwx.info

Track history (hours):
 
Tides and Currents Weather Stations Pressure Air Temp Water Temp Dewpoint Dewpoint Depression Visibility Wind Speed Wind Dir Waves Ship Positions

Thomson Majesty

Last reported at 2014-Sep-01 00:23 UTC. Time now 2014-Sep-01 07:28 UTC.
Position N 37°21' E 012°42'.

Length 207 m; draft 6.2 m.

Type: Ship. MMSI: 248124000.

Date/timePositionNaut miles runAvg speedWind from/ knotsBaromVisibWave heightAir tempDewpointWater temp
2014-Sep-01 00:23N 37°21' E 012°42'1113.8
2014-Aug-31 23:33N 37°13' E 012°52'1413.8
2014-Aug-31 22:32N 37°03' E 013°05'1313.8
2014-Aug-31 21:33N 36°54' E 013°17'1413.8
2014-Aug-31 20:33N 36°44' E 013°30'1313.1
2014-Aug-31 19:32N 36°35' E 013°42'1313.4
2014-Aug-31 18:33N 36°26' E 013°54'1313.3
2014-Aug-31 17:33N 36°17' E 014°06'1413.6
2014-Aug-31 16:33N 36°08' E 014°18'1413.8
2014-Aug-31 15:33N 35°58' E 014°30'4 0.4
2014-Aug-31 05:05N 35°54' E 014°32'612.2
2014-Aug-31 04:33N 35°58' E 014°37'1413.7
2014-Aug-31 03:30N 36°07' E 014°51'  
Track history (hours):
 
Tides and Currents Weather Stations Pressure Air Temp Water Temp Dewpoint Dewpoint Depression Visibility Wind Speed Wind Dir Waves Ship Positions

Thomson Majesty

Last reported at 2014-Sep-01 00:23 UTC. Time now 2014-Sep-01 07:28 UTC.
Position N 37°21' E 012°42'.

Length 207 m; draft 6.2 m.

Type: Ship. MMSI: 248124000.

Date/timePositionNaut miles runAvg speedWind from/ knotsBaromVisibWave heightAir tempDewpointWater temp
2014-Sep-01 00:23N 37°21' E 012°42'1113.8
2014-Aug-31 23:33N 37°13' E 012°52'1413.8
2014-Aug-31 22:32N 37°03' E 013°05'1313.8
2014-Aug-31 21:33N 36°54' E 013°17'1413.8
2014-Aug-31 20:33N 36°44' E 013°30'1313.1
2014-Aug-31 19:32N 36°35' E 013°42'1313.4
2014-Aug-31 18:33N 36°26' E 013°54'1313.3
2014-Aug-31 17:33N 36°17' E 014°06'1413.6
2014-Aug-31 16:33N 36°08' E 014°18'1413.8
2014-Aug-31 15:33N 35°58' E 014°30'4 0.4
2014-Aug-31 05:05N 35°54' E 014°32'612.2
2014-Aug-31 04:33N 35°58' E 014°37'1413.7
2014-Aug-31 03:30N 36°07' E 014°51'  

Dump ship's entire track history